sensor_id;sensor_type;location;lat;lon;timestamp;pressure;altitude;pressure_sealevel;temperature;humidity
54854;BME280;40747;49.480;8.658;2023-01-26T00:00:52;101054.97;;;1.50;99.76
54854;BME280;40747;49.480;8.658;2023-01-26T00:03:18;101042.75;;;1.44;100.00
54854;BME280;40747;49.480;8.658;2023-01-26T00:05:43;101050.00;;;1.62;100.00
54854;BME280;40747;49.480;8.658;2023-01-26T00:08:09;101050.13;;;1.70;99.25
54854;BME280;40747;49.480;8.658;2023-01-26T00:10:36;101054.66;;;1.82;99.20
54854;BME280;40747;49.480;8.658;2023-01-26T00:13:02;101046.91;;;1.83;99.08
54854;BME280;40747;49.480;8.658;2023-01-26T00:15:28;101047.63;;;1.74;98.44
54854;BME280;40747;49.480;8.658;2023-01-26T00:17:53;101046.19;;;1.43;98.63
54854;BME280;40747;49.480;8.658;2023-01-26T00:20:18;101047.13;;;1.46;98.80
54854;BME280;40747;49.480;8.658;2023-01-26T00:22:43;101042.75;;;1.44;98.66
54854;BME280;40747;49.480;8.658;2023-01-26T00:25:09;101045.34;;;1.42;98.83
54854;BME280;40747;49.480;8.658;2023-01-26T00:27:35;101029.19;;;1.11;100.00
54854;BME280;40747;49.480;8.658;2023-01-26T00:30:00;101014.28;;;1.01;100.00
54854;BME280;40747;49.480;8.658;2023-01-26T00:32:25;101021.94;;;0.95;100.00
54854;BME280;40747;49.480;8.658;2023-01-26T00:34:51;101016.94;;;1.04;100.00
54854;BME280;40747;49.480;8.658;2023-01-26T00:37:16;101011.78;;;1.06;100.00
54854;BME280;40747;49.480;8.658;2023-01-26T00:39:41;101020.72;;;1.22;100.00
54854;BME280;40747;49.480;8.658;2023-01-26T00:42:07;101024.09;;;1.18;100.00
54854;BME280;40747;49.480;8.658;2023-01-26T00:44:39;101016.13;;;1.08;100.00
54854;BME280;40747;49.480;8.658;2023-01-26T00:47:06;101012.81;;;1.14;100.00
54854;BME280;40747;49.480;8.658;2023-01-26T00:49:32;101014.31;;;1.03;100.00
54854;BME280;40747;49.480;8.658;2023-01-26T00:51:57;101006.69;;;1.10;100.00
54854;BME280;40747;49.480;8.658;2023-01-26T00:54:22;101010.28;;;1.19;100.00
54854;BME280;40747;49.480;8.658;2023-01-26T00:56:48;101005.22;;;1.25;100.00
54854;BME280;40747;49.480;8.658;2023-01-26T00:59:13;101011.47;;;1.36;99.97
54854;BME280;40747;49.480;8.658;2023-01-26T01:01:38;101014.94;;;1.37;99.36
54854;BME280;40747;49.480;8.658;2023-01-26T01:04:04;100998.31;;;1.25;99.91
54854;BME280;40747;49.480;8.658;2023-01-26T01:06:29;101006.97;;;1.26;99.53
54854;BME280;40747;49.480;8.658;2023-01-26T01:08:54;101010.25;;;1.17;99.55
54854;BME280;40747;49.480;8.658;2023-01-26T01:11:19;101001.53;;;1.13;99.78
54854;BME280;40747;49.480;8.658;2023-01-26T01:13:45;101006.47;;;1.00;100.00
54854;BME280;40747;49.480;8.658;2023-01-26T01:16:13;101012.31;;;0.89;100.00
54854;BME280;40747;49.480;8.658;2023-01-26T01:18:39;100998.31;;;0.81;100.00
54854;BME280;40747;49.480;8.658;2023-01-26T01:21:09;100999.34;;;0.91;100.00
54854;BME280;40747;49.480;8.658;2023-01-26T01:23:35;100996.72;;;0.88;100.00
54854;BME280;40747;49.480;8.658;2023-01-26T01:26:00;100993.13;;;0.79;100.00
54854;BME280;40747;49.480;8.658;2023-01-26T01:28:26;100988.38;;;0.60;100.00
54854;BME280;40747;49.480;8.658;2023-01-26T01:30:51;100992.84;;;0.67;100.00
54854;BME280;40747;49.480;8.658;2023-01-26T01:33:17;100995.63;;;0.76;100.00
54854;BME280;40747;49.480;8.658;2023-01-26T01:35:43;100989.41;;;0.68;100.00
54854;BME280;40747;49.480;8.658;2023-01-26T01:38:08;100986.69;;;0.62;100.00
54854;BME280;40747;49.480;8.658;2023-01-26T01:40:33;100998.34;;;0.82;100.00
54854;BME280;40747;49.480;8.658;2023-01-26T01:42:59;100992.97;;;0.73;100.00
54854;BME280;40747;49.480;8.658;2023-01-26T01:47:56;100990.91;;;0.57;100.00
54854;BME280;40747;49.480;8.658;2023-01-26T01:50:23;100990.13;;;0.61;100.00
54854;BME280;40747;49.480;8.658;2023-01-26T01:52:50;100992.03;;;0.70;100.00
54854;BME280;40747;49.480;8.658;2023-01-26T01:55:17;100995.50;;;0.70;100.00
54854;BME280;40747;49.480;8.658;2023-01-26T01:57:54;100992.16;;;0.74;100.00
54854;BME280;40747;49.480;8.658;2023-01-26T02:00:22;101001.72;;;0.77;100.00
54854;BME280;40747;49.480;8.658;2023-01-26T02:02:58;100991.84;;;1.03;100.00
54854;BME280;40747;49.480;8.658;2023-01-26T02:08:45;100995.00;;;0.88;100.00
54854;BME280;40747;49.480;8.658;2023-01-26T02:11:18;100995.31;;;1.04;100.00
54854;BME280;40747;49.480;8.658;2023-01-26T02:13:46;100980.50;;;0.98;100.00
54854;BME280;40747;49.480;8.658;2023-01-26T02:16:13;100985.81;;;1.04;100.00
54854;BME280;40747;49.480;8.658;2023-01-26T02:18:39;100979.59;;;0.96;100.00
54854;BME280;40747;49.480;8.658;2023-01-26T02:21:14;100989.41;;;0.68;100.00
54854;BME280;40747;49.480;8.658;2023-01-26T02:26:13;100979.84;;;0.64;100.00
54854;BME280;40747;49.480;8.658;2023-01-26T02:28:40;100974.13;;;0.39;100.00
54854;BME280;40747;49.480;8.658;2023-01-26T02:31:06;100974.66;;;0.24;100.00
54854;BME280;40747;49.480;8.658;2023-01-26T02:33:33;100977.31;;;0.27;100.00
54854;BME280;40747;49.480;8.658;2023-01-26T02:35:59;100971.84;;;0.13;100.00
54854;BME280;40747;49.480;8.658;2023-01-26T02:38:32;100971.03;;;0.16;100.00
54854;BME280;40747;49.480;8.658;2023-01-26T02:41:06;100971.69;;;0.07;100.00
54854;BME280;40747;49.480;8.658;2023-01-26T02:43:32;100969.94;;;0.06;100.00
54854;BME280;40747;49.480;8.658;2023-01-26T02:45:58;100967.22;;;0.00;100.00
54854;BME280;40747;49.480;8.658;2023-01-26T02:48:23;100969.84;;;0.02;100.00
54854;BME280;40747;49.480;8.658;2023-01-26T02:51:07;100969.81;;;0.00;100.00
54854;BME280;40747;49.480;8.658;2023-01-26T02:53:33;100961.00;;;-0.07;100.00
54854;BME280;40747;49.480;8.658;2023-01-26T02:55:59;100966.72;;;0.16;100.00
54854;BME280;40747;49.480;8.658;2023-01-26T02:58:24;100976.03;;;0.08;100.00
54854;BME280;40747;49.480;8.658;2023-01-26T03:00:49;100959.72;;;0.12;100.00
54854;BME280;40747;49.480;8.658;2023-01-26T03:03:21;100944.78;;;0.01;100.00
54854;BME280;40747;49.480;8.658;2023-01-26T03:05:47;100956.78;;;-0.03;100.00
54854;BME280;40747;49.480;8.658;2023-01-26T03:08:13;100953.25;;;-0.07;100.00
54854;BME280;40747;49.480;8.658;2023-01-26T03:10:39;100949.88;;;-0.03;100.00
54854;BME280;40747;49.480;8.658;2023-01-26T03:13:04;100956.25;;;0.10;100.00
54854;BME280;40747;49.480;8.658;2023-01-26T03:15:30;100941.34;;;0.00;100.00
54854;BME280;40747;49.480;8.658;2023-01-26T03:18:13;100945.13;;;0.16;100.00
54854;BME280;40747;49.480;8.658;2023-01-26T03:21:01;100938.00;;;0.06;100.00
54854;BME280;40747;49.480;8.658;2023-01-26T03:23:45;100933.75;;;0.09;100.00
54854;BME280;40747;49.480;8.658;2023-01-26T03:26:29;100926.19;;;0.20;100.00
54854;BME280;40747;49.480;8.658;2023-01-26T03:29:13;100929.88;;;0.30;100.00
54854;BME280;40747;49.480;8.658;2023-01-26T03:31:38;100938.03;;;0.09;100.00
54854;BME280;40747;49.480;8.658;2023-01-26T03:34:04;100931.00;;;0.02;100.00
54854;BME280;40747;49.480;8.658;2023-01-26T03:36:29;100934.72;;;0.13;100.00
54854;BME280;40747;49.480;8.658;2023-01-26T03:38:54;100929.47;;;0.11;100.00
54854;BME280;40747;49.480;8.658;2023-01-26T03:41:20;100925.34;;;0.20;100.00
54854;BME280;40747;49.480;8.658;2023-01-26T03:44:03;100910.53;;;0.14;100.00
54854;BME280;40747;49.480;8.658;2023-01-26T03:46:47;100924.81;;;0.35;100.00
54854;BME280;40747;49.480;8.658;2023-01-26T03:49:31;100915.44;;;0.41;100.00
54854;BME280;40747;49.480;8.658;2023-01-26T03:52:15;100927.59;;;0.45;100.00
54854;BME280;40747;49.480;8.658;2023-01-26T03:54:59;100914.81;;;0.12;100.00
54854;BME280;40747;49.480;8.658;2023-01-26T03:57:44;100916.25;;;0.40;100.00
54854;BME280;40747;49.480;8.658;2023-01-26T04:00:10;100911.91;;;0.39;100.00
54854;BME280;40747;49.480;8.658;2023-01-26T04:02:38;100915.75;;;0.15;100.00
54854;BME280;40747;49.480;8.658;2023-01-26T04:05:22;100913.22;;;0.19;100.00
54854;BME280;40747;49.480;8.658;2023-01-26T04:08:06;100911.56;;;0.21;100.00
54854;BME280;40747;49.480;8.658;2023-01-26T04:10:49;100912.38;;;0.20;100.00
54854;BME280;40747;49.480;8.658;2023-01-26T04:13:16;100914.09;;;0.19;100.00
54854;BME280;40747;49.480;8.658;2023-01-26T04:16:00;100909.59;;;0.10;100.00
54854;BME280;40747;49.480;8.658;2023-01-26T04:18:44;100917.66;;;0.24;100.00
54854;BME280;40747;49.480;8.658;2023-01-26T04:21:28;100913.38;;;0.26;100.00
54854;BME280;40747;49.480;8.658;2023-01-26T04:24:01;100906.28;;;0.18;100.00
54854;BME280;40747;49.480;8.658;2023-01-26T04:26:34;100900.97;;;0.11;100.00
54854;BME280;40747;49.480;8.658;2023-01-26T04:29:05;100904.47;;;0.13;100.00
54854;BME280;40747;49.480;8.658;2023-01-26T04:31:31;100898.16;;;0.01;100.00
54854;BME280;40747;49.480;8.658;2023-01-26T04:33:57;100894.72;;;0.00;100.00
54854;BME280;40747;49.480;8.658;2023-01-26T04:36:22;100891.53;;;0.13;100.00
54854;BME280;40747;49.480;8.658;2023-01-26T04:38:48;100891.38;;;0.06;100.00
54854;BME280;40747;49.480;8.658;2023-01-26T04:41:13;100894.47;;;-0.09;100.00
54854;BME280;40747;49.480;8.658;2023-01-26T04:43:39;100888.66;;;-0.39;100.00
54854;BME280;40747;49.480;8.658;2023-01-26T04:46:06;100882.41;;;-0.48;100.00
54854;BME280;40747;49.480;8.658;2023-01-26T04:48:32;100880.44;;;-0.59;100.00
54854;BME280;40747;49.480;8.658;2023-01-26T04:51:01;100888.25;;;-0.56;100.00
54854;BME280;40747;49.480;8.658;2023-01-26T04:53:27;100878.94;;;-0.47;100.00
54854;BME280;40747;49.480;8.658;2023-01-26T04:55:53;100885.16;;;-0.41;100.00
54854;BME280;40747;49.480;8.658;2023-01-26T04:58:19;100885.16;;;-0.41;100.00
54854;BME280;40747;49.480;8.658;2023-01-26T05:00:50;100878.41;;;-0.34;100.00
54854;BME280;40747;49.480;8.658;2023-01-26T05:03:15;100871.63;;;-0.29;100.00
54854;BME280;40747;49.480;8.658;2023-01-26T05:05:40;100871.03;;;-0.15;100.00
54854;BME280;40747;49.480;8.658;2023-01-26T05:08:06;100871.81;;;-0.20;100.00
54854;BME280;40747;49.480;8.658;2023-01-26T05:10:32;100872.22;;;-0.41;100.00
54854;BME280;40747;49.480;8.658;2023-01-26T05:12:58;100874.53;;;-0.53;100.00
54854;BME280;40747;49.480;8.658;2023-01-26T05:15:23;100873.78;;;-0.47;100.00
54854;BME280;40747;49.480;8.658;2023-01-26T05:17:48;100871.38;;;-0.40;100.00
54854;BME280;40747;49.480;8.658;2023-01-26T05:20:14;100872.31;;;-0.36;100.00
54854;BME280;40747;49.480;8.658;2023-01-26T05:22:39;100864.19;;;-0.13;100.00
54854;BME280;40747;49.480;8.658;2023-01-26T05:25:05;100861.75;;;-0.06;100.00
54854;BME280;40747;49.480;8.658;2023-01-26T05:27:30;100863.91;;;-0.26;100.00
54854;BME280;40747;49.480;8.658;2023-01-26T05:29:55;100862.53;;;-0.11;100.00
54854;BME280;40747;49.480;8.658;2023-01-26T05:32:25;100860.69;;;-0.15;100.00
54854;BME280;40747;49.480;8.658;2023-01-26T05:34:52;100864.78;;;-0.27;100.00
54854;BME280;40747;49.480;8.658;2023-01-26T05:37:17;100870.13;;;-0.19;100.00
54854;BME280;40747;49.480;8.658;2023-01-26T05:39:43;100878.56;;;-0.64;100.00
54854;BME280;40747;49.480;8.658;2023-01-26T05:42:09;100874.50;;;-0.90;100.00
54854;BME280;40747;49.480;8.658;2023-01-26T05:44:35;100886.25;;;-1.03;100.00
54854;BME280;40747;49.480;8.658;2023-01-26T05:47:00;100882.69;;;-1.06;100.00
54854;BME280;40747;49.480;8.658;2023-01-26T05:49:25;100882.03;;;-0.99;100.00
54854;BME280;40747;49.480;8.658;2023-01-26T05:51:50;100889.94;;;-0.93;100.00
54854;BME280;40747;49.480;8.658;2023-01-26T05:54:16;100888.03;;;-1.00;100.00
54854;BME280;40747;49.480;8.658;2023-01-26T05:56:41;100886.19;;;-1.04;100.00
54854;BME280;40747;49.480;8.658;2023-01-26T05:59:06;100892.19;;;-1.05;100.00
54854;BME280;40747;49.480;8.658;2023-01-26T06:01:32;100885.28;;;-1.06;100.00
54854;BME280;40747;49.480;8.658;2023-01-26T06:03:57;100883.63;;;-1.04;100.00
54854;BME280;40747;49.480;8.658;2023-01-26T06:06:22;100888.59;;;-1.12;100.00
54854;BME280;40747;49.480;8.658;2023-01-26T06:08:47;100887.63;;;-1.16;100.00
54854;BME280;40747;49.480;8.658;2023-01-26T06:11:13;100894.50;;;-1.18;100.00
54854;BME280;40747;49.480;8.658;2023-01-26T06:13:38;100894.53;;;-1.16;100.00
54854;BME280;40747;49.480;8.658;2023-01-26T06:16:03;100888.41;;;-1.20;100.00
54854;BME280;40747;49.480;8.658;2023-01-26T06:18:30;100901.38;;;-1.17;100.00
54854;BME280;40747;49.480;8.658;2023-01-26T06:20:58;100904.06;;;-1.13;100.00
54854;BME280;40747;49.480;8.658;2023-01-26T06:23:25;100903.97;;;-1.17;100.00
54854;BME280;40747;49.480;8.658;2023-01-26T06:25:50;100900.59;;;-1.14;100.00
54854;BME280;40747;49.480;8.658;2023-01-26T06:28:16;100904.91;;;-1.14;100.00
54854;BME280;40747;49.480;8.658;2023-01-26T06:30:42;100913.66;;;-1.09;100.00
54854;BME280;40747;49.480;8.658;2023-01-26T06:33:07;100913.66;;;-1.09;100.00
54854;BME280;40747;49.480;8.658;2023-01-26T06:35:32;100915.25;;;-1.14;100.00
54854;BME280;40747;49.480;8.658;2023-01-26T06:38:00;100916.28;;;-1.08;100.00
54854;BME280;40747;49.480;8.658;2023-01-26T06:40:25;100912.06;;;-1.04;100.00
54854;BME280;40747;49.480;8.658;2023-01-26T06:42:51;100901.56;;;-1.10;100.00
54854;BME280;40747;49.480;8.658;2023-01-26T06:45:16;100915.69;;;-0.97;100.00
54854;BME280;40747;49.480;8.658;2023-01-26T06:47:48;100906.28;;;-0.94;100.00
54854;BME280;40747;49.480;8.658;2023-01-26T06:50:15;100906.91;;;-0.69;100.00
54854;BME280;40747;49.480;8.658;2023-01-26T06:52:45;100906.63;;;-0.45;100.00
54854;BME280;40747;49.480;8.658;2023-01-26T06:55:20;100903.28;;;-0.41;100.00
54854;BME280;40747;49.480;8.658;2023-01-26T06:57:46;100913.03;;;-0.29;100.00
54854;BME280;40747;49.480;8.658;2023-01-26T07:00:12;100903.84;;;-0.53;100.00
54854;BME280;40747;49.480;8.658;2023-01-26T07:02:38;100898.31;;;-0.31;100.00
54854;BME280;40747;49.480;8.658;2023-01-26T07:05:03;100911.84;;;-0.05;100.00
54854;BME280;40747;49.480;8.658;2023-01-26T07:07:29;100916.19;;;-0.04;100.00
54854;BME280;40747;49.480;8.658;2023-01-26T07:09:54;100907.53;;;-0.06;100.00
54854;BME280;40747;49.480;8.658;2023-01-26T07:12:19;100902.75;;;-0.26;100.00
54854;BME280;40747;49.480;8.658;2023-01-26T07:14:45;100909.81;;;-0.19;100.00
54854;BME280;40747;49.480;8.658;2023-01-26T07:17:11;100914.16;;;-0.18;100.00
54854;BME280;40747;49.480;8.658;2023-01-26T07:19:36;100910.97;;;-0.06;100.00
54854;BME280;40747;49.480;8.658;2023-01-26T07:22:01;100903.63;;;0.13;100.00
54854;BME280;40747;49.480;8.658;2023-01-26T07:24:27;100904.53;;;0.16;100.00
54854;BME280;40747;49.480;8.658;2023-01-26T07:26:53;100911.56;;;0.22;100.00
54854;BME280;40747;49.480;8.658;2023-01-26T07:29:19;100911.72;;;0.28;100.00
54854;BME280;40747;49.480;8.658;2023-01-26T07:31:44;100914.84;;;0.13;100.00
54854;BME280;40747;49.480;8.658;2023-01-26T07:34:10;100913.16;;;0.15;100.00
54854;BME280;40747;49.480;8.658;2023-01-26T07:36:36;100914.41;;;-0.07;100.00
54854;BME280;40747;49.480;8.658;2023-01-26T07:39:01;100906.38;;;-0.19;100.00
54854;BME280;40747;49.480;8.658;2023-01-26T07:41:26;100909.16;;;-0.10;100.00
54854;BME280;40747;49.480;8.658;2023-01-26T07:43:51;100907.59;;;-0.02;100.00
54854;BME280;40747;49.480;8.658;2023-01-26T07:46:17;100917.94;;;-0.41;100.00
54854;BME280;40747;49.480;8.658;2023-01-26T07:48:42;100913.47;;;-0.48;100.00
54854;BME280;40747;49.480;8.658;2023-01-26T07:51:07;100921.69;;;-0.65;100.00
54854;BME280;40747;49.480;8.658;2023-01-26T07:53:35;100918.63;;;-0.84;100.00
54854;BME280;40747;49.480;8.658;2023-01-26T07:56:14;100923.44;;;-0.97;100.00
54854;BME280;40747;49.480;8.658;2023-01-26T07:58:40;100919.75;;;-1.07;100.00
54854;BME280;40747;49.480;8.658;2023-01-26T08:01:11;100923.59;;;-0.91;100.00
54854;BME280;40747;49.480;8.658;2023-01-26T08:03:37;100934.56;;;-1.00;100.00
54854;BME280;40747;49.480;8.658;2023-01-26T08:06:03;100929.56;;;-0.94;100.00
54854;BME280;40747;49.480;8.658;2023-01-26T08:08:29;100924.94;;;-0.72;100.00
54854;BME280;40747;49.480;8.658;2023-01-26T08:10:55;100903.91;;;-0.86;100.00
54854;BME280;40747;49.480;8.658;2023-01-26T08:13:21;100932.88;;;-0.66;100.00
54854;BME280;40747;49.480;8.658;2023-01-26T08:15:46;100928.38;;;-0.73;100.00
54854;BME280;40747;49.480;8.658;2023-01-26T08:18:11;100925.25;;;-0.93;100.00
54854;BME280;40747;49.480;8.658;2023-01-26T08:20:37;100919.47;;;-1.17;100.00
54854;BME280;40747;49.480;8.658;2023-01-26T08:23:02;100925.03;;;-1.03;100.00
54854;BME280;40747;49.480;8.658;2023-01-26T08:25:27;100929.13;;;-1.11;100.00
54854;BME280;40747;49.480;8.658;2023-01-26T08:27:53;100931.56;;;-1.16;100.00
54854;BME280;40747;49.480;8.658;2023-01-26T08:30:19;100934.72;;;-1.27;100.00
54854;BME280;40747;49.480;8.658;2023-01-26T08:32:48;100938.34;;;-1.21;100.00
54854;BME280;40747;49.480;8.658;2023-01-26T08:35:13;100931.09;;;-1.34;100.00
54854;BME280;40747;49.480;8.658;2023-01-26T08:37:39;100934.72;;;-1.27;100.00
54854;BME280;40747;49.480;8.658;2023-01-26T08:40:04;100942.69;;;-1.20;100.00
54854;BME280;40747;49.480;8.658;2023-01-26T08:42:30;100945.22;;;-1.21;100.00
54854;BME280;40747;49.480;8.658;2023-01-26T08:44:56;100941.63;;;-1.26;100.00
54854;BME280;40747;49.480;8.658;2023-01-26T08:47:21;100947.81;;;-1.21;100.00
54854;BME280;40747;49.480;8.658;2023-01-26T08:49:46;100946.09;;;-1.21;100.00
54854;BME280;40747;49.480;8.658;2023-01-26T08:52:12;100942.75;;;-1.17;100.00
54854;BME280;40747;49.480;8.658;2023-01-26T08:54:37;100946.50;;;-1.05;100.00
54854;BME280;40747;49.480;8.658;2023-01-26T08:57:02;100948.44;;;-0.98;100.00
54854;BME280;40747;49.480;8.658;2023-01-26T08:59:27;100949.19;;;-1.02;100.00
54854;BME280;40747;49.480;8.658;2023-01-26T09:01:53;100944.84;;;-1.03;100.00
54854;BME280;40747;49.480;8.658;2023-01-26T09:04:19;100944.31;;;-0.90;100.00
54854;BME280;40747;49.480;8.658;2023-01-26T09:06:44;100948.28;;;-1.03;100.00
54854;BME280;40747;49.480;8.658;2023-01-26T09:09:10;100953.88;;;-1.19;100.00
54854;BME280;40747;49.480;8.658;2023-01-26T09:11:38;100939.88;;;-1.27;100.00
54854;BME280;40747;49.480;8.658;2023-01-26T09:14:03;100946.66;;;-1.31;100.00
54854;BME280;40747;49.480;8.658;2023-01-26T09:16:28;100944.22;;;-1.26;100.00
54854;BME280;40747;49.480;8.658;2023-01-26T09:18:54;100952.09;;;-1.22;100.00
54854;BME280;40747;49.480;8.658;2023-01-26T09:21:20;100948.47;;;-1.28;100.00
54854;BME280;40747;49.480;8.658;2023-01-26T09:23:46;100942.44;;;-1.29;100.00
54854;BME280;40747;49.480;8.658;2023-01-26T09:26:11;100939.25;;;-1.19;100.00
54854;BME280;40747;49.480;8.658;2023-01-26T09:28:36;100951.25;;;-1.21;100.00
54854;BME280;40747;49.480;8.658;2023-01-26T09:31:03;100943.25;;;-1.30;100.00
54854;BME280;40747;49.480;8.658;2023-01-26T09:33:29;100953.84;;;-1.21;100.00
54854;BME280;40747;49.480;8.658;2023-01-26T09:35:55;100951.00;;;-1.30;100.00
54854;BME280;40747;49.480;8.658;2023-01-26T09:38:20;100965.88;;;-1.23;100.00
54854;BME280;40747;49.480;8.658;2023-01-26T09:46:19;100947.22;;;-1.11;100.00
54854;BME280;40747;49.480;8.658;2023-01-26T09:51:44;100944.91;;;-1.00;100.00
54854;BME280;40747;49.480;8.658;2023-01-26T09:56:44;100951.25;;;-0.89;100.00
54854;BME280;40747;49.480;8.658;2023-01-26T09:59:23;100935.50;;;-0.98;100.00
54854;BME280;40747;49.480;8.658;2023-01-26T10:04:39;100946.34;;;-1.11;100.00
54854;BME280;40747;49.480;8.658;2023-01-26T10:07:11;100927.25;;;-1.17;100.00
54854;BME280;40747;49.480;8.658;2023-01-26T10:09:40;100933.94;;;-1.25;100.00
54854;BME280;40747;49.480;8.658;2023-01-26T10:12:17;100933.47;;;-1.10;100.00
54854;BME280;40747;49.480;8.658;2023-01-26T10:14:49;100936.41;;;-0.96;100.00
54854;BME280;40747;49.480;8.658;2023-01-26T10:17:29;100931.09;;;-1.02;100.00
54854;BME280;40747;49.480;8.658;2023-01-26T10:20:03;100932.88;;;-1.00;100.00
54854;BME280;40747;49.480;8.658;2023-01-26T10:22:37;100934.84;;;-0.91;100.00
54854;BME280;40747;49.480;8.658;2023-01-26T10:25:13;100939.31;;;-0.84;100.00
54854;BME280;40747;49.480;8.658;2023-01-26T10:27:39;100931.72;;;-0.77;100.00
54854;BME280;40747;49.480;8.658;2023-01-26T10:30:07;100928.69;;;-0.94;100.00
54854;BME280;40747;49.480;8.658;2023-01-26T10:32:36;100921.38;;;-0.77;100.00
54854;BME280;40747;49.480;8.658;2023-01-26T10:35:01;100917.72;;;-0.86;100.00
54854;BME280;40747;49.480;8.658;2023-01-26T10:37:28;100913.25;;;-0.91;100.00
54854;BME280;40747;49.480;8.658;2023-01-26T10:40:03;100920.59;;;-0.73;100.00
54854;BME280;40747;49.480;8.658;2023-01-26T10:42:34;100905.78;;;-0.80;100.00
54854;BME280;40747;49.480;8.658;2023-01-26T10:45:01;100912.84;;;-0.73;100.00
54854;BME280;40747;49.480;8.658;2023-01-26T10:47:28;100921.03;;;-0.90;100.00
54854;BME280;40747;49.480;8.658;2023-01-26T10:50:14;100919.31;;;-0.91;100.00
54854;BME280;40747;49.480;8.658;2023-01-26T10:52:55;100917.63;;;-0.89;100.00
54854;BME280;40747;49.480;8.658;2023-01-26T10:55:21;100903.41;;;-0.71;100.00
54854;BME280;40747;49.480;8.658;2023-01-26T10:57:47;100916.13;;;-0.80;100.00
54854;BME280;40747;49.480;8.658;2023-01-26T11:00:23;100908.78;;;-0.63;100.00
54854;BME280;40747;49.480;8.658;2023-01-26T11:02:51;100901.06;;;-0.60;100.00
54854;BME280;40747;49.480;8.658;2023-01-26T11:05:23;100899.53;;;-0.54;100.00
54854;BME280;40747;49.480;8.658;2023-01-26T11:07:50;100898.75;;;-0.50;100.00
54854;BME280;40747;49.480;8.658;2023-01-26T11:13:14;100898.63;;;-0.56;100.00
54854;BME280;40747;49.480;8.658;2023-01-26T11:15:46;100898.28;;;-0.70;100.00
54854;BME280;40747;49.480;8.658;2023-01-26T11:20:50;100887.41;;;-0.56;100.00
54854;BME280;40747;49.480;8.658;2023-01-26T11:31:44;100887.38;;;-0.91;100.00
54854;BME280;40747;49.480;8.658;2023-01-26T11:34:38;100874.75;;;-0.80;100.00
54854;BME280;40747;49.480;8.658;2023-01-26T11:37:32;100888.66;;;-0.75;100.00
54854;BME280;40747;49.480;8.658;2023-01-26T11:40:18;100865.91;;;-0.89;100.00
54854;BME280;40747;49.480;8.658;2023-01-26T11:43:14;100873.94;;;-0.78;100.00
54854;BME280;40747;49.480;8.658;2023-01-26T11:48:21;100869.41;;;-0.87;100.00
54854;BME280;40747;49.480;8.658;2023-01-26T11:50:56;100878.06;;;-0.85;100.00
54854;BME280;40747;49.480;8.658;2023-01-26T11:53:40;100875.44;;;-0.86;100.00
54854;BME280;40747;49.480;8.658;2023-01-26T11:58:59;100860.66;;;-0.92;100.00
54854;BME280;40747;49.480;8.658;2023-01-26T12:01:52;100861.41;;;-0.96;100.00
54854;BME280;40747;49.480;8.658;2023-01-26T12:04:20;100858.28;;;-0.83;100.00
54854;BME280;40747;49.480;8.658;2023-01-26T12:06:57;100851.56;;;-0.76;100.00
54854;BME280;40747;49.480;8.658;2023-01-26T12:09:35;100858.59;;;-0.70;100.00
54854;BME280;40747;49.480;8.658;2023-01-26T12:12:13;100842.81;;;-0.81;100.00
54854;BME280;40747;49.480;8.658;2023-01-26T12:15:10;100845.31;;;-0.86;100.00
54854;BME280;40747;49.480;8.658;2023-01-26T12:17:57;100849.06;;;-0.73;100.00
54854;BME280;40747;49.480;8.658;2023-01-26T12:22:59;100833.34;;;-0.80;100.00
54854;BME280;40747;49.480;8.658;2023-01-26T12:25:40;100834.84;;;-0.90;100.00
54854;BME280;40747;49.480;8.658;2023-01-26T12:28:23;100829.72;;;-0.87;100.00
54854;BME280;40747;49.480;8.658;2023-01-26T12:30:57;100827.56;;;-0.70;100.00
54854;BME280;40747;49.480;8.658;2023-01-26T12:33:26;100829.03;;;-0.80;100.00
54854;BME280;40747;49.480;8.658;2023-01-26T12:36:12;100821.59;;;-0.66;100.00
54854;BME280;40747;49.480;8.658;2023-01-26T12:44:35;100816.13;;;-0.78;100.00
54854;BME280;40747;49.480;8.658;2023-01-26T12:47:15;100811.75;;;-0.83;100.00
54854;BME280;40747;49.480;8.658;2023-01-26T12:50:05;100810.78;;;-0.86;100.00
54854;BME280;40747;49.480;8.658;2023-01-26T12:52:45;100811.78;;;-0.81;100.00
54854;BME280;40747;49.480;8.658;2023-01-26T12:55:32;100806.13;;;-0.64;100.00
54854;BME280;40747;49.480;8.658;2023-01-26T12:58:03;100809.56;;;-0.64;100.00
54854;BME280;40747;49.480;8.658;2023-01-26T13:00:37;100805.94;;;-0.72;100.00
54854;BME280;40747;49.480;8.658;2023-01-26T13:03:22;100799.09;;;-0.70;100.00
54854;BME280;40747;49.480;8.658;2023-01-26T13:06:19;100806.09;;;-0.66;100.00
54854;BME280;40747;49.480;8.658;2023-01-26T13:11:44;100808.38;;;-0.78;100.00
54854;BME280;40747;49.480;8.658;2023-01-26T13:16:52;100796.41;;;-0.75;100.00
54854;BME280;40747;49.480;8.658;2023-01-26T13:22:37;100802.66;;;-1.02;100.00
54854;BME280;40747;49.480;8.658;2023-01-26T13:25:18;100798.13;;;-1.10;100.00
54854;BME280;40747;49.480;8.658;2023-01-26T13:27:55;100799.28;;;-0.99;100.00
54854;BME280;40747;49.480;8.658;2023-01-26T13:32:52;100807.84;;;-1.02;100.00
54854;BME280;40747;49.480;8.658;2023-01-26T13:35:21;100807.19;;;-0.93;100.00
54854;BME280;40747;49.480;8.658;2023-01-26T13:38:01;100800.28;;;-0.92;100.00
54854;BME280;40747;49.480;8.658;2023-01-26T13:40:37;100801.84;;;-1.01;100.00
54854;BME280;40747;49.480;8.658;2023-01-26T13:43:18;100806.72;;;-1.11;100.00
54854;BME280;40747;49.480;8.658;2023-01-26T13:48:36;100805.22;;;-1.03;100.00
54854;BME280;40747;49.480;8.658;2023-01-26T13:51:06;100804.22;;;-1.08;100.00
54854;BME280;40747;49.480;8.658;2023-01-26T13:53:38;100815.25;;;-1.16;100.00
54854;BME280;40747;49.480;8.658;2023-01-26T13:56:18;100808.41;;;-1.13;100.00
54854;BME280;40747;49.480;8.658;2023-01-26T13:58:44;100804.06;;;-1.14;100.00